createdAt,value
2018-08-28T07:23:28.435Z,6.40
2018-08-28T07:24:36.334Z,6.10
2018-08-28T07:25:41.988Z,5.80
2018-08-28T07:26:50.835Z,5.50
2018-08-28T07:28:52.700Z,5.80
2018-08-28T07:29:56.980Z,5.80
2018-08-28T07:34:49.678Z,5.80
2018-08-28T07:35:54.181Z,5.70
2018-08-28T07:37:03.845Z,5.60
2018-08-28T07:38:11.025Z,5.70
2018-08-28T07:39:29.026Z,5.80
2018-08-28T07:57:23.451Z,6.20
2018-08-28T07:58:50.567Z,6.50
2018-08-28T08:18:10.641Z,5.40
2018-08-28T08:36:22.059Z,5.10
2018-08-28T09:06:53.188Z,5.80
2018-08-28T09:14:57.334Z,5.60
2018-08-28T09:18:29.939Z,6.20
2018-08-28T09:23:27.766Z,6.00
2018-08-28T09:24:28.551Z,6.00
2018-08-28T09:25:32.768Z,5.90
2018-08-28T09:26:42.012Z,5.90
2018-08-28T09:29:37.540Z,5.70
2018-08-28T09:32:37.707Z,6.00
2018-08-28T09:33:58.725Z,5.90
2018-08-28T10:02:09.007Z,6.50
2018-08-28T10:06:44.861Z,6.30
2018-08-28T10:18:47.329Z,6.40
2018-08-28T10:19:54.266Z,7.00
2018-08-28T10:22:42.034Z,5.90
2018-08-28T10:23:45.895Z,6.30
2018-08-28T10:24:50.514Z,6.30
2018-08-28T10:49:28.232Z,6.70
2018-08-28T10:55:18.565Z,7.30
2018-08-28T11:03:35.442Z,7.50
2018-08-28T11:33:28.427Z,8.20
2018-08-28T11:34:29.458Z,7.20
2018-08-28T11:35:30.990Z,7.40
2018-08-28T11:38:58.616Z,7.10
2018-08-28T12:56:11.642Z,8.10
2018-08-28T12:59:55.722Z,8.10
2018-08-28T13:14:32.673Z,7.60
2018-08-28T13:20:01.804Z,7.60
2018-08-28T13:25:01.950Z,7.40
2018-08-28T15:43:27.773Z,8.20
2018-08-28T15:44:34.096Z,8.20
2018-08-28T16:13:12.992Z,7.60
2018-08-28T16:14:40.296Z,7.20
2018-08-28T16:16:17.726Z,7.80
2018-08-28T16:20:12.023Z,7.30
2018-08-28T16:25:36.945Z,7.60
2018-08-28T16:45:58.376Z,7.70
2018-08-28T16:50:21.815Z,7.70
2018-08-28T16:51:29.727Z,8.00
2018-08-28T16:52:31.025Z,7.80
2018-08-28T16:57:10.183Z,7.30
2018-08-28T17:07:42.710Z,7.30
2018-08-28T17:08:46.996Z,7.30
2018-08-28T17:11:53.440Z,7.20
2018-08-28T17:17:47.300Z,7.70
2018-08-28T17:19:04.802Z,7.30
2018-08-28T17:22:12.936Z,7.30
2018-08-28T17:23:24.310Z,7.20
2018-08-28T17:24:26.169Z,7.20
2018-08-28T17:25:29.224Z,7.50
2018-08-28T17:26:31.071Z,7.30
2018-08-28T17:27:32.384Z,7.70
2018-08-28T17:28:35.879Z,7.10
2018-08-28T17:29:51.393Z,7.10
2018-08-28T17:30:54.735Z,7.10
2018-08-28T17:31:57.648Z,7.20
2018-08-28T17:32:59.528Z,7.20
2018-08-28T17:34:06.768Z,7.70
2018-08-28T17:35:09.274Z,7.80
2018-08-28T17:36:10.556Z,7.80
2018-08-28T17:37:13.245Z,7.10
2018-08-28T17:38:17.022Z,7.40
2018-08-28T17:39:23.645Z,7.70
2018-08-28T17:40:32.516Z,7.30
2018-08-28T17:41:39.459Z,7.50
2018-08-28T17:42:41.462Z,7.60
2018-08-28T17:43:45.456Z,7.50
2018-08-28T17:44:46.571Z,7.50
2018-08-28T17:45:50.989Z,7.40
2018-08-28T17:46:53.955Z,7.40
2018-08-28T17:47:59.187Z,7.30
2018-08-28T17:49:00.067Z,7.30
2018-08-28T17:50:01.346Z,7.30
2018-08-28T17:51:03.573Z,7.80
2018-08-28T17:52:04.410Z,7.70
2018-08-28T17:53:05.386Z,9.20
2018-08-28T17:54:06.077Z,8.70
2018-08-28T17:55:07.963Z,9.80
2018-08-28T17:56:27.929Z,10.10
2018-08-28T17:57:43.151Z,10.20
2018-08-28T17:58:45.178Z,9.80
2018-08-28T18:00:06.404Z,9.90
2018-08-28T18:01:12.294Z,9.80
2018-08-28T18:02:14.227Z,9.10
2018-08-28T18:03:26.662Z,9.40
2018-08-28T18:04:27.634Z,9.70
2018-08-28T18:05:28.506Z,9.40
2018-08-28T18:06:30.516Z,9.30
2018-08-28T18:07:33.025Z,9.30
2018-08-28T18:08:35.729Z,9.00
2018-08-28T18:09:43.796Z,8.80
2018-08-28T18:10:49.200Z,7.80
2018-08-28T18:11:49.852Z,7.70
2018-08-28T18:12:50.568Z,7.80
2018-08-28T18:13:51.380Z,7.90
2018-08-28T18:14:52.200Z,7.70
2018-08-28T18:16:03.365Z,7.20
2018-08-28T18:17:04.104Z,7.20
2018-08-28T18:18:04.969Z,7.40
2018-08-28T18:19:26.317Z,7.80
2018-08-28T18:20:27.088Z,7.40
2018-08-28T18:21:27.879Z,7.00
2018-08-28T18:22:28.745Z,6.80
2018-08-28T18:23:30.587Z,7.40
2018-08-28T18:24:38.190Z,8.30
2018-08-28T18:25:53.493Z,8.10
2018-08-28T18:26:56.092Z,8.40
2018-08-28T18:28:02.241Z,7.90
2018-08-28T18:29:13.876Z,7.50
2018-08-28T18:30:27.607Z,7.20
2018-08-28T18:46:05.712Z,7.40
2018-08-28T18:57:49.629Z,7.60
2018-08-28T19:03:49.688Z,7.00
2018-08-28T19:04:58.911Z,7.10
2018-08-28T19:14:24.732Z,6.60
2018-08-28T19:15:27.739Z,6.60
2018-08-28T19:25:49.587Z,6.80
2018-08-28T19:26:56.584Z,7.00
2018-08-28T19:30:13.716Z,7.30
2018-08-28T19:33:19.303Z,7.10
2018-08-28T19:36:56.076Z,6.80
2018-08-28T19:43:34.076Z,7.10
2018-08-28T19:44:53.563Z,7.10
2018-08-28T19:46:29.976Z,7.40
2018-08-28T19:47:44.734Z,6.60
2018-08-28T19:51:03.409Z,7.10
2018-08-28T19:52:37.742Z,7.40
2018-08-28T19:53:56.291Z,7.20
2018-08-28T19:54:57.589Z,7.00
2018-08-28T19:56:03.035Z,6.70
2018-08-28T20:06:59.533Z,6.90
2018-08-28T20:08:08.959Z,7.30
2018-08-28T20:09:16.845Z,7.00
2018-08-28T20:10:25.175Z,6.60
2018-08-28T20:12:03.408Z,7.30
2018-08-28T20:13:25.365Z,7.00
2018-08-28T20:14:33.674Z,7.30
2018-08-28T20:15:37.876Z,7.90
2018-08-28T20:17:20.011Z,7.90
2018-08-28T20:18:21.123Z,7.70
2018-08-28T20:19:50.474Z,7.60
2018-08-28T20:21:32.593Z,7.30
2018-08-28T20:24:20.428Z,7.30
2018-08-28T20:25:21.273Z,6.90
2018-08-28T20:26:41.346Z,7.10
2018-08-28T20:32:52.656Z,7.40
2018-08-28T20:34:40.141Z,7.40
2018-08-28T20:35:41.693Z,7.20
2018-08-28T20:37:00.012Z,7.70
2018-08-28T20:38:32.629Z,7.40
2018-08-28T20:39:38.762Z,7.40
2018-08-28T20:40:48.515Z,7.10
2018-08-28T20:42:00.602Z,7.70
2018-08-28T20:43:05.386Z,7.70
2018-08-28T20:44:25.423Z,7.70
2018-08-28T20:47:29.939Z,7.50
2018-08-28T20:49:45.609Z,7.40
2018-08-28T20:51:16.118Z,7.70
2018-08-28T20:52:44.092Z,7.70
2018-08-28T20:54:22.164Z,7.60
